Starrville, Texas
Current Conditions -  °F | °C
As of 8:06 PM on Friday 19 Dec 2014 (Local Time) from KTYR Reporting Station
Haze Haze  
Wind Chill: 44°   Ceiling: 300
Heat Index: 47°   Visibility: 2.5mi
Dew Point: 45°   Wind: 7mph
Humidity: 93%   Direction: 20°NNE
Pressure: 30.17"   Gusts: NA
Location:  32.4644°N, 95.1125°W
Report Text: KTYR 200206Z 02006KT 2 1/2SM BR OVC003 08/07 A3017 RMK AO2 T00830072
Loading
Personal Weather Stations






























Interactive Weather Map New forecast layout! Learn more

10-Day Weather Forecast

Advertisements
Track Severe Weather on mobile